Time;durP1;ratioP1;P1;durP2;ratioP2;P2;SDS_P1;SDS_P2;PMS_P1;PMS_P2;Temp;Humidity;BMP_temperature;BMP_pressure;BME280_temperature;BME280_humidity;BME280_pressure;Samples;Min_cycle;Max_cycle;Signal;HPM_P1;HPM_P2
2021/09/12 00:00:44;;;;;;;18.20;15.90;;;18.10;99.90;;;;;;5061060;28;20481;-84
2021/09/12 00:03:11;;;;;;;22.33;17.77;;;17.70;99.90;;;;;;5061154;28;20458;-84
2021/09/12 00:05:40;;;;;;;23.13;16.57;;;17.80;99.90;;;;;;5061590;28;20462;-84
2021/09/12 00:08:07;;;;;;;19.13;16.60;;;17.90;99.90;;;;;;5061319;28;20564;-84
2021/09/12 00:10:37;;;;;;;21.80;16.40;;;17.90;99.90;;;;;;5061513;28;20458;-83
2021/09/12 00:13:05;;;;;;;18.73;16.17;;;18.00;99.90;;;;;;5062599;28;20454;-83
2021/09/12 00:15:35;;;;;;;20.93;18.73;;;17.60;99.90;;;;;;5062839;28;20797;-84
2021/09/12 00:18:02;;;;;;;18.63;16.00;;;17.80;99.90;;;;;;5062009;28;20488;-84
2021/09/12 00:20:29;;;;;;;18.13;15.53;;;17.60;99.90;;;;;;5061918;28;20454;-84
2021/09/12 00:22:59;;;;;;;23.87;17.80;;;17.60;99.90;;;;;;5061814;28;20786;-85
2021/09/12 00:25:26;;;;;;;19.40;15.57;;;17.40;99.90;;;;;;5063013;28;20454;-84
2021/09/12 00:27:55;;;;;;;19.77;17.00;;;17.50;99.90;;;;;;5062517;28;20497;-84
2021/09/12 00:30:23;;;;;;;18.07;15.73;;;17.60;99.90;;;;;;5065195;28;20477;-84
2021/09/12 00:32:53;;;;;;;20.13;17.90;;;17.80;99.90;;;;;;5067793;28;20457;-84
2021/09/12 00:35:22;;;;;;;24.50;18.13;;;17.60;99.90;;;;;;5076708;28;20446;-84
2021/09/12 00:37:50;;;;;;;21.87;18.07;;;17.60;99.90;;;;;;5076401;28;20477;-84
2021/09/12 00:40:21;;;;;;;18.60;16.37;;;17.50;99.90;;;;;;5076638;28;20461;-83
2021/09/12 00:42:49;;;;;;;18.17;16.23;;;17.50;99.90;;;;;;5071960;28;20441;-84
2021/09/12 00:45:19;;;;;;;19.53;17.47;;;17.50;99.90;;;;;;5065035;28;20450;-84
2021/09/12 00:47:51;;;;;;;29.00;18.00;;;17.50;99.90;;;;;;5061045;28;20484;-84
2021/09/12 00:50:19;;;;;;;23.23;18.63;;;17.60;99.90;;;;;;5071864;28;20403;-84
2021/09/12 00:52:47;;;;;;;20.97;18.00;;;17.50;99.90;;;;;;5077775;28;20776;-84
2021/09/12 00:55:17;;;;;;;22.50;17.73;;;17.50;99.90;;;;;;5063333;28;20454;-84
2021/09/12 00:57:47;;;;;;;19.30;17.23;;;17.60;99.90;;;;;;5061506;28;21013;-84
2021/09/12 01:00:15;;;;;;;22.17;17.40;;;17.50;99.90;;;;;;5062043;28;20472;-84
2021/09/12 01:02:43;;;;;;;21.53;18.23;;;17.50;99.90;;;;;;5060522;28;20957;-84
2021/09/12 01:05:11;;;;;;;24.40;17.50;;;17.50;99.90;;;;;;5061417;28;20453;-84
2021/09/12 01:07:39;;;;;;;26.27;19.53;;;17.50;99.90;;;;;;5062685;28;20470;-84
2021/09/12 01:10:08;;;;;;;24.43;20.60;;;17.60;99.90;;;;;;5062120;28;20520;-85
2021/09/12 01:12:37;;;;;;;21.13;18.40;;;17.40;99.90;;;;;;5064024;28;20941;-85
2021/09/12 01:15:11;;;;;;;21.20;17.60;;;17.50;99.90;;;;;;5064012;28;20454;-85
2021/09/12 01:17:39;;;;;;;26.43;18.47;;;17.40;99.90;;;;;;5063550;28;20504;-83
2021/09/12 01:20:08;;;;;;;23.20;19.30;;;17.40;99.90;;;;;;5064426;28;20454;-83
2021/09/12 01:22:38;;;;;;;19.93;17.33;;;17.30;99.90;;;;;;5063666;28;20453;-83
2021/09/12 01:25:09;;;;;;;20.93;17.60;;;17.30;99.90;;;;;;5063619;28;20814;-83
2021/09/12 01:27:37;;;;;;;19.60;17.50;;;17.30;99.90;;;;;;5065349;28;20582;-83
2021/09/12 01:30:05;;;;;;;21.40;18.63;;;17.30;99.90;;;;;;5064149;28;20458;-85
2021/09/12 01:32:35;;;;;;;21.20;18.20;;;17.30;99.90;;;;;;5065590;28;20438;-84
2021/09/12 01:35:02;;;;;;;19.87;17.77;;;17.20;99.90;;;;;;5065894;28;20458;-84
2021/09/12 01:37:29;;;;;;;22.60;17.40;;;17.20;99.90;;;;;;5068851;28;20550;-84
2021/09/12 01:39:56;;;;;;;20.83;18.50;;;17.20;99.90;;;;;;5064155;28;20513;-84
2021/09/12 01:42:25;;;;;;;25.60;19.03;;;16.80;99.90;;;;;;5062029;28;20450;-84
2021/09/12 01:44:54;;;;;;;22.10;19.13;;;17.40;99.90;;;;;;5067764;28;20832;-84
2021/09/12 01:47:22;;;;;;;25.43;19.63;;;17.00;99.90;;;;;;5059986;28;20476;-84
2021/09/12 01:49:51;;;;;;;26.07;20.57;;;17.30;99.90;;;;;;5069893;28;20519;-83
2021/09/12 01:52:19;;;;;;;23.63;19.57;;;17.40;99.90;;;;;;5074358;28;20468;-84
2021/09/12 01:54:46;;;;;;;22.30;18.80;;;17.20;99.90;;;;;;5065264;28;20438;-84
2021/09/12 01:57:15;;;;;;;26.00;19.20;;;17.30;99.90;;;;;;5063738;28;20473;-84
2021/09/12 01:59:45;;;;;;;25.67;20.00;;;17.00;99.90;;;;;;5062720;28;20965;-84
2021/09/12 02:02:12;;;;;;;23.70;19.57;;;17.60;99.90;;;;;;5061463;28;20450;-84
2021/09/12 02:04:39;;;;;;;25.20;21.60;;;16.90;99.90;;;;;;5061233;28;20454;-84
2021/09/12 02:07:07;;;;;;;26.47;19.20;;;17.10;99.90;;;;;;5061125;28;20470;-84
2021/09/12 02:09:36;;;;;;;23.90;21.27;;;17.10;99.90;;;;;;5069773;28;20457;-81
2021/09/12 02:12:04;;;;;;;24.37;20.00;;;16.80;99.90;;;;;;5067999;28;20797;-85
2021/09/12 02:14:31;;;;;;;22.83;19.37;;;17.00;99.90;;;;;;5062408;28;20450;-82
2021/09/12 02:17:00;;;;;;;24.70;19.70;;;17.00;99.90;;;;;;5063086;28;20500;-83
2021/09/12 02:19:27;;;;;;;26.00;20.73;;;16.70;99.90;;;;;;5062540;28;20482;-84
2021/09/12 02:21:54;;;;;;;26.30;21.10;;;16.90;99.90;;;;;;5061334;28;20454;-84
2021/09/12 02:24:21;;;;;;;25.40;20.40;;;17.00;99.90;;;;;;5062603;28;20454;-83
2021/09/12 02:26:48;;;;;;;28.97;20.80;;;16.60;99.90;;;;;;5061137;28;20466;-84
2021/09/12 02:29:17;;;;;;;27.33;19.80;;;16.80;99.90;;;;;;5061943;28;20446;-84
2021/09/12 02:31:45;;;;;;;25.73;19.40;;;16.80;99.90;;;;;;5062001;28;20470;-84
2021/09/12 02:34:15;;;;;;;20.97;18.67;;;16.80;99.90;;;;;;5061610;28;20454;-84
2021/09/12 02:36:42;;;;;;;22.80;19.40;;;16.50;99.90;;;;;;5061261;28;20476;-84
2021/09/12 02:39:10;;;;;;;21.97;18.73;;;16.80;99.90;;;;;;5061585;28;20567;-84
2021/09/12 02:41:39;;;;;;;21.23;18.17;;;16.80;99.90;;;;;;5062026;28;20569;-84
2021/09/12 02:44:06;;;;;;;20.90;18.53;;;16.90;99.90;;;;;;5061787;28;20458;-84
2021/09/12 02:46:34;;;;;;;22.67;19.33;;;16.60;99.90;;;;;;5067641;28;20450;-84
2021/09/12 02:49:01;;;;;;;25.13;20.33;;;17.10;99.90;;;;;;5061594;28;20585;-83
2021/09/12 02:51:33;;;;;;;23.07;16.93;;;16.60;99.90;;;;;;5057735;28;20474;-83
2021/09/12 02:54:01;;;;;;;20.27;16.63;;;16.80;99.90;;;;;;5058751;28;20459;-83
2021/09/12 02:56:29;;;;;;;28.20;19.00;;;16.60;99.90;;;;;;5058994;28;20460;-84
2021/09/12 02:58:57;;;;;;;21.47;18.93;;;16.70;99.90;;;;;;5059707;28;20521;-83
2021/09/12 03:01:24;;;;;;;22.30;18.40;;;16.70;99.90;;;;;;5060882;28;20458;-84
2021/09/12 03:03:54;;;;;;;22.60;18.97;;;16.60;99.90;;;;;;5060373;28;20450;-83
2021/09/12 03:06:21;;;;;;;25.83;18.83;;;16.70;99.90;;;;;;5060665;28;20507;-84
2021/09/12 03:08:49;;;;;;;20.93;18.27;;;16.70;99.90;;;;;;5059531;28;21092;-84
2021/09/12 03:11:16;;;;;;;23.50;20.03;;;16.40;99.90;;;;;;5059641;28;20458;-84
2021/09/12 03:13:43;;;;;;;20.53;18.33;;;16.80;99.90;;;;;;5061445;28;20517;-84
2021/09/12 03:16:13;;;;;;;27.03;20.47;;;16.60;99.90;;;;;;5064864;28;20528;-84
2021/09/12 03:18:40;;;;;;;21.67;17.57;;;16.40;99.90;;;;;;5076935;28;20482;-84
2021/09/12 03:21:08;;;;;;;20.47;18.27;;;16.40;99.90;;;;;;5076418;28;20446;-84
2021/09/12 03:23:35;;;;;;;21.83;18.97;;;16.30;99.90;;;;;;5070208;28;20473;-85
2021/09/12 03:26:04;;;;;;;20.90;17.03;;;16.50;99.90;;;;;;5062552;28;20540;-84
2021/09/12 03:28:31;;;;;;;22.83;19.37;;;16.60;99.90;;;;;;5061824;28;20477;-83
2021/09/12 03:30:58;;;;;;;28.00;19.17;;;16.70;99.90;;;;;;5060793;28;20572;-83
2021/09/12 03:33:26;;;;;;;20.20;17.20;;;16.80;99.90;;;;;;5060401;28;20450;-83
2021/09/12 03:35:57;;;;;;;21.40;17.70;;;16.60;99.90;;;;;;5061625;28;20461;-83
2021/09/12 03:38:26;;;;;;;23.33;18.20;;;16.30;99.90;;;;;;5060819;28;20482;-83
2021/09/12 03:41:00;;;;;;;22.63;19.13;;;16.40;99.90;;;;;;5059540;28;20468;-82
2021/09/12 03:43:29;;;;;;;23.27;19.83;;;16.50;99.90;;;;;;5061091;28;20522;-83
2021/09/12 03:45:57;;;;;;;24.23;19.67;;;16.30;99.90;;;;;;5059788;28;20462;-83
2021/09/12 03:48:24;;;;;;;22.80;19.43;;;16.30;99.90;;;;;;5066114;28;20529;-82
2021/09/12 03:50:51;;;;;;;20.37;17.43;;;16.40;99.90;;;;;;5062728;28;20449;-83
2021/09/12 03:53:19;;;;;;;27.30;18.70;;;16.40;99.90;;;;;;5056328;28;20465;-83
2021/09/12 03:55:48;;;;;;;23.70;19.60;;;16.40;99.90;;;;;;5057663;28;20516;-83
2021/09/12 03:58:15;;;;;;;22.20;18.60;;;16.50;99.90;;;;;;5058326;28;20482;-83
2021/09/12 04:00:43;;;;;;;24.80;18.63;;;16.30;99.90;;;;;;5057772;28;20465;-83
2021/09/12 04:03:10;;;;;;;21.50;19.20;;;16.40;99.90;;;;;;5059063;28;20541;-82
2021/09/12 04:05:37;;;;;;;27.60;19.03;;;16.20;99.90;;;;;;5059416;28;20457;-83
2021/09/12 04:08:04;;;;;;;24.87;18.90;;;16.30;99.90;;;;;;5059545;28;20463;-83
2021/09/12 04:10:32;;;;;;;24.30;19.13;;;16.30;99.90;;;;;;5059617;28;20458;-83
2021/09/12 04:13:01;;;;;;;25.20;17.70;;;16.10;99.90;;;;;;5061706;28;20775;-83
2021/09/12 04:15:28;;;;;;;20.40;18.30;;;16.10;99.90;;;;;;5062067;28;20477;-83
2021/09/12 04:17:56;;;;;;;22.53;17.57;;;16.20;99.90;;;;;;5063057;28;20982;-83
2021/09/12 04:20:23;;;;;;;22.73;18.67;;;16.30;99.90;;;;;;5061333;28;20446;-84
2021/09/12 04:22:49;;;;;;;23.43;17.53;;;16.30;99.90;;;;;;5060863;28;20458;-83
2021/09/12 04:25:20;;;;;;;20.67;18.40;;;16.30;99.90;;;;;;5061504;28;20507;-83
2021/09/12 04:27:46;;;;;;;20.30;18.10;;;16.30;99.90;;;;;;5060538;28;20799;-83
2021/09/12 04:30:15;;;;;;;21.30;19.07;;;16.30;99.90;;;;;;5060424;28;20508;-83
2021/09/12 04:32:42;;;;;;;24.70;17.67;;;16.30;99.90;;;;;;5059595;28;20476;-83
2021/09/12 04:35:11;;;;;;;18.90;16.87;;;16.20;99.90;;;;;;5060381;28;20470;-83
2021/09/12 04:37:37;;;;;;;22.20;18.60;;;16.30;99.90;;;;;;5071139;28;20485;-82
2021/09/12 04:40:05;;;;;;;23.37;17.40;;;16.30;99.90;;;;;;5076975;28;20482;-83
2021/09/12 04:42:33;;;;;;;22.67;17.80;;;16.30;99.90;;;;;;5070172;28;20438;-83
2021/09/12 04:45:00;;;;;;;20.30;17.33;;;;;;;;;;5065458;28;20442;-83
2021/09/12 04:47:26;;;;;;;24.90;18.47;;;16.30;99.90;;;;;;5063064;28;20485;-83
2021/09/12 04:49:56;;;;;;;19.90;17.73;;;16.30;99.90;;;;;;5060930;28;20438;-83
2021/09/12 04:52:24;;;;;;;25.83;19.43;;;16.40;99.90;;;;;;5059032;28;20466;-83
2021/09/12 04:54:50;;;;;;;22.90;18.00;;;16.00;99.90;;;;;;5056813;28;20450;-83
2021/09/12 04:57:17;;;;;;;24.47;18.20;;;16.30;99.90;;;;;;5060973;28;20469;-83
2021/09/12 04:59:43;;;;;;;22.17;18.83;;;16.40;99.90;;;;;;5060740;28;20502;-83
2021/09/12 05:02:10;;;;;;;20.30;17.60;;;16.40;99.90;;;;;;5060420;28;20477;-84
2021/09/12 05:04:36;;;;;;;24.20;20.17;;;16.30;99.90;;;;;;5060522;28;20472;-84
2021/09/12 05:07:03;;;;;;;23.63;17.77;;;16.30;99.90;;;;;;5061017;28;20488;-83
2021/09/12 05:09:31;;;;;;;23.03;18.37;;;16.30;99.90;;;;;;5059904;28;20457;-83
2021/09/12 05:11:58;;;;;;;27.47;23.00;;;16.20;99.90;;;;;;5060271;28;20441;-83
2021/09/12 05:14:25;;;;;;;24.37;18.27;;;16.30;99.90;;;;;;5060263;28;20992;-83
2021/09/12 05:16:54;;;;;;;23.87;19.07;;;16.20;99.90;;;;;;5059539;28;20454;-83
2021/09/12 05:19:20;;;;;;;21.50;18.80;;;16.10;99.90;;;;;;5063008;28;20826;-83
2021/09/12 05:21:47;;;;;;;24.73;19.90;;;16.20;99.90;;;;;;5063198;28;20512;-83
2021/09/12 05:24:13;;;;;;;23.53;19.37;;;16.20;99.90;;;;;;5062872;28;20476;-83
2021/09/12 05:26:41;;;;;;;20.70;18.03;;;16.20;99.90;;;;;;5067571;28;20449;-82
2021/09/12 05:29:08;;;;;;;24.93;18.93;;;16.20;99.90;;;;;;5118667;23;20523;-82
2021/09/12 05:31:35;;;;;;;22.53;19.43;;;16.20;99.90;;;;;;5101294;28;20523;-82
2021/09/12 05:34:01;;;;;;;21.70;17.30;;;16.20;99.90;;;;;;5101242;28;20456;-81
2021/09/12 05:36:28;;;;;;;24.60;18.87;;;16.20;99.90;;;;;;5100808;28;20444;-82
2021/09/12 05:38:54;;;;;;;21.87;18.03;;;16.30;99.90;;;;;;5083826;28;20481;-82
2021/09/12 05:41:21;;;;;;;19.87;15.80;;;16.30;99.90;;;;;;5080223;28;20441;-81
2021/09/12 05:43:49;;;;;;;23.63;18.60;;;16.30;99.90;;;;;;5082285;28;20503;-81
2021/09/12 05:46:15;;;;;;;21.80;17.50;;;16.30;99.90;;;;;;5079994;28;20449;-81
2021/09/12 05:48:42;;;;;;;19.87;17.70;;;16.30;99.90;;;;;;5080150;28;20457;-81
2021/09/12 05:51:08;;;;;;;20.37;18.27;;;16.40;99.90;;;;;;5079266;28;20494;-81
2021/09/12 05:53:35;;;;;;;18.67;16.70;;;16.40;99.90;;;;;;5079548;28;20964;-81
2021/09/12 05:56:02;;;;;;;20.27;16.50;;;16.40;99.90;;;;;;5079624;28;20505;-82
2021/09/12 05:58:28;;;;;;;19.57;17.33;;;16.40;99.90;;;;;;5079776;28;20534;-81
2021/09/12 06:00:56;;;;;;;23.10;17.90;;;16.50;99.90;;;;;;5077817;28;20487;-82
2021/09/12 06:03:23;;;;;;;22.63;19.63;;;16.50;99.90;;;;;;5089130;28;20968;-81
2021/09/12 06:05:49;;;;;;;28.90;19.83;;;16.50;99.90;;;;;;5084948;28;20445;-81
2021/09/12 06:08:16;;;;;;;24.13;19.93;;;16.50;99.90;;;;;;5093323;28;20465;-81
2021/09/12 06:10:42;;;;;;;21.40;16.93;;;16.50;99.90;;;;;;5090914;28;20441;-81
2021/09/12 06:13:09;;;;;;;20.07;17.90;;;16.60;99.90;;;;;;5094124;28;20480;-81
2021/09/12 06:15:36;;;;;;;25.53;18.00;;;16.60;99.90;;;;;;5094988;28;20445;-80
2021/09/12 06:18:03;;;;;;;20.13;16.37;;;16.60;99.90;;;;;;5083894;28;20465;-82
2021/09/12 06:20:30;;;;;;;22.17;18.80;;;16.60;99.90;;;;;;5085942;28;20477;-82
2021/09/12 06:22:57;;;;;;;22.00;17.10;;;16.60;99.90;;;;;;5081870;28;20476;-83
2021/09/12 06:25:23;;;;;;;24.43;17.77;;;16.70;99.90;;;;;;5081415;28;20467;-83
2021/09/12 06:27:50;;;;;;;26.73;17.50;;;16.70;99.90;;;;;;5079080;28;20477;-83
2021/09/12 06:30:18;;;;;;;22.23;16.90;;;16.70;99.90;;;;;;5078734;28;20995;-83
2021/09/12 06:32:45;;;;;;;23.97;17.80;;;16.70;99.90;;;;;;5079739;28;20454;-83
2021/09/12 06:35:13;;;;;;;21.50;17.10;;;16.70;99.90;;;;;;5080330;28;20897;-82
2021/09/12 06:37:40;;;;;;;18.47;15.20;;;16.70;99.90;;;;;;5080234;28;20497;-83
2021/09/12 06:40:08;;;;;;;22.63;17.00;;;16.80;99.90;;;;;;5078638;28;20521;-83
2021/09/12 06:42:35;;;;;;;24.37;17.30;;;16.80;99.90;;;;;;5079243;28;20449;-83
2021/09/12 06:45:01;;;;;;;21.70;17.47;;;16.80;99.90;;;;;;5080074;28;20445;-82
2021/09/12 06:47:28;;;;;;;20.60;18.17;;;16.80;99.90;;;;;;5079004;28;20495;-83
2021/09/12 06:49:55;;;;;;;18.13;15.43;;;16.80;99.90;;;;;;5078958;28;20446;-83
2021/09/12 06:52:22;;;;;;;19.23;16.70;;;16.90;99.90;;;;;;5079119;28;20449;-83
2021/09/12 06:54:49;;;;;;;18.90;17.00;;;16.90;99.90;;;;;;5078552;28;20445;-83
2021/09/12 06:57:16;;;;;;;19.03;15.93;;;18.10;99.90;;;;;;5077485;28;20957;-83
2021/09/12 06:59:42;;;;;;;18.83;14.87;;;17.10;99.90;;;;;;5078332;28;20848;-83
2021/09/12 07:02:11;;;;;;;20.40;17.00;;;17.10;99.90;;;;;;5079239;28;20438;-82
2021/09/12 07:04:37;;;;;;;21.60;15.97;;;17.20;99.90;;;;;;5079040;28;20445;-83
2021/09/12 07:07:04;;;;;;;23.07;16.63;;;17.30;99.90;;;;;;5078430;28;20441;-83
2021/09/12 07:09:32;;;;;;;20.30;16.30;;;17.40;99.90;;;;;;5089044;28;20437;-82
2021/09/12 07:11:58;;;;;;;19.13;15.90;;;17.40;99.90;;;;;;5089786;28;20441;-83
2021/09/12 07:14:25;;;;;;;24.90;17.80;;;17.60;99.90;;;;;;5088291;28;20445;-81
2021/09/12 07:16:52;;;;;;;19.20;16.20;;;17.70;99.90;;;;;;5081172;28;20961;-83
2021/09/12 07:19:18;;;;;;;20.23;15.70;;;17.80;99.90;;;;;;5079082;28;20550;-83
2021/09/12 07:21:45;;;;;;;19.70;16.47;;;17.80;99.90;;;;;;5079200;28;20492;-82
2021/09/12 07:24:12;;;;;;;23.93;18.27;;;17.90;99.90;;;;;;5092631;28;20452;-81
2021/09/12 07:26:40;;;;;;;16.77;15.00;;;17.90;99.90;;;;;;5085125;28;20472;-82
2021/09/12 07:29:07;;;;;;;18.80;15.60;;;18.00;99.90;;;;;;5079033;28;20540;-82
2021/09/12 07:31:33;;;;;;;16.50;14.80;;;18.00;99.90;;;;;;5078119;28;20453;-82
2021/09/12 07:34:02;;;;;;;23.50;15.60;;;18.00;99.90;;;;;;5078843;28;20503;-82
2021/09/12 07:36:29;;;;;;;19.73;16.20;;;18.10;99.90;;;;;;5079660;28;20459;-82
2021/09/12 07:38:55;;;;;;;16.53;13.43;;;18.10;99.90;;;;;;5080965;28;20841;-84
2021/09/12 07:41:22;;;;;;;18.40;14.50;;;18.10;99.90;;;;;;5091403;28;20456;-83
2021/09/12 07:43:50;;;;;;;16.00;13.93;;;18.20;99.90;;;;;;5097788;28;20441;-82
2021/09/12 07:46:17;;;;;;;17.60;14.30;;;18.30;99.90;;;;;;5099007;28;20465;-83
2021/09/12 07:48:43;;;;;;;18.47;15.60;;;18.30;99.90;;;;;;5098557;28;20449;-81
2021/09/12 07:51:10;;;;;;;18.47;14.30;;;18.30;99.90;;;;;;5097725;28;20438;-82
2021/09/12 07:53:37;;;;;;;16.60;13.90;;;18.30;99.90;;;;;;5097500;28;20425;-80
2021/09/12 07:56:04;;;;;;;17.07;14.60;;;18.40;99.90;;;;;;5096798;28;20453;-81
2021/09/12 07:58:30;;;;;;;14.30;12.80;;;18.40;99.90;;;;;;5093939;28;20450;-81
2021/09/12 08:00:58;;;;;;;20.97;13.87;;;18.40;99.90;;;;;;5091911;28;20481;-82
2021/09/12 08:03:25;;;;;;;15.73;14.00;;;18.40;99.90;;;;;;5083328;28;20452;-82
2021/09/12 08:05:51;;;;;;;18.23;13.70;;;18.40;99.90;;;;;;5083875;28;20456;-82
2021/09/12 08:08:19;;;;;;;15.97;13.13;;;18.40;99.90;;;;;;5082108;28;20821;-82
2021/09/12 08:10:46;;;;;;;18.97;14.10;;;18.40;99.90;;;;;;5081443;28;20447;-82
2021/09/12 08:13:12;;;;;;;18.30;15.43;;;18.50;99.90;;;;;;5080709;28;20979;-82
2021/09/12 08:15:39;;;;;;;16.13;14.43;;;18.50;99.90;;;;;;5078231;28;20518;-83
2021/09/12 08:18:07;;;;;;;23.40;15.00;;;18.50;99.90;;;;;;5078980;28;20530;-82
2021/09/12 08:20:34;;;;;;;18.80;13.70;;;18.50;99.90;;;;;;5083949;28;20503;-82
2021/09/12 08:23:00;;;;;;;17.27;14.20;;;18.50;99.90;;;;;;5085997;28;20449;-82
2021/09/12 08:25:28;;;;;;;20.00;15.10;;;18.50;99.90;;;;;;5088165;28;20445;-82
2021/09/12 08:27:54;;;;;;;17.00;14.90;;;18.50;99.90;;;;;;5085165;28;20485;-82
2021/09/12 08:30:21;;;;;;;18.40;15.07;;;18.60;99.90;;;;;;5079787;28;20487;-83
2021/09/12 08:32:47;;;;;;;18.53;12.93;;;18.60;99.90;;;;;;5078930;28;20449;-82
2021/09/12 08:35:15;;;;;;;18.20;14.40;;;18.50;99.90;;;;;;5082469;28;20499;-82
2021/09/12 08:37:42;;;;;;;18.93;14.23;;;18.40;99.90;;;;;;5079121;28;20544;-82
2021/09/12 08:40:10;;;;;;;17.67;13.63;;;18.60;99.90;;;;;;5078606;28;20588;-83
2021/09/12 08:42:38;;;;;;;20.90;15.27;;;18.60;99.90;;;;;;5078380;28;20487;-83
2021/09/12 08:45:06;;;;;;;19.87;14.33;;;18.60;99.90;;;;;;5082062;28;20445;-82
2021/09/12 08:47:33;;;;;;;15.33;13.40;;;18.70;99.90;;;;;;5078751;28;20465;-83
2021/09/12 08:50:00;;;;;;;15.43;13.53;;;18.70;99.90;;;;;;5079463;28;20445;-81
2021/09/12 08:52:28;;;;;;;19.60;16.17;;;18.70;99.90;;;;;;5082305;28;20437;-82
2021/09/12 08:54:55;;;;;;;19.23;14.27;;;18.80;99.90;;;;;;5082199;28;20464;-82
2021/09/12 08:57:21;;;;;;;14.90;12.23;;;18.80;99.90;;;;;;5081909;28;20469;-83
2021/09/12 08:59:50;;;;;;;16.07;12.50;;;18.80;99.90;;;;;;5081666;28;20850;-82
2021/09/12 09:02:17;;;;;;;16.13;14.00;;;18.90;99.90;;;;;;5082107;28;20833;-82
2021/09/12 09:04:44;;;;;;;16.20;13.17;;;18.90;99.90;;;;;;5081572;28;20481;-82
2021/09/12 09:07:11;;;;;;;17.03;15.20;;;18.90;99.90;;;;;;5082224;28;20449;-82
2021/09/12 09:09:43;;;;;;;14.77;13.17;;;18.70;99.90;;;;;;5082947;28;20453;-82
2021/09/12 09:12:33;;;;;;;16.87;13.10;;;18.90;99.90;;;;;;5082723;28;20437;-82
2021/09/12 09:15:12;;;;;;;16.60;14.77;;;18.90;99.90;;;;;;5081712;28;20483;-82
2021/09/12 09:17:42;;;;;;;18.63;14.73;;;18.90;99.90;;;;;;5083450;28;20471;-83
2021/09/12 09:20:11;;;;;;;16.87;14.40;;;18.90;99.90;;;;;;5085593;28;20476;-82
2021/09/12 09:22:40;;;;;;;17.33;14.70;;;19.10;99.90;;;;;;5088307;28;20570;-82
2021/09/12 09:25:14;;;;;;;22.70;15.77;;;19.00;99.90;;;;;;5088088;28;20426;-82
2021/09/12 09:27:55;;;;;;;16.07;12.97;;;19.00;99.90;;;;;;5085182;28;20530;-82
2021/09/12 09:30:21;;;;;;;16.80;13.83;;;19.10;99.90;;;;;;5086954;28;20479;-81
2021/09/12 09:32:48;;;;;;;24.70;14.70;;;19.20;99.90;;;;;;5090961;28;20446;-82
2021/09/12 09:35:21;;;;;;;15.80;13.57;;;19.40;99.90;;;;;;5091326;28;20464;-82
2021/09/12 09:37:49;;;;;;;19.20;15.60;;;19.30;99.90;;;;;;5093639;28;20461;-81
2021/09/12 09:40:17;;;;;;;17.50;13.87;;;18.60;99.90;;;;;;5094517;28;20488;-82
2021/09/12 09:42:45;;;;;;;17.63;15.60;;;19.30;99.90;;;;;;5088122;28;20937;-82
2021/09/12 09:45:14;;;;;;;21.40;14.07;;;19.20;99.90;;;;;;5085648;28;20445;-82
2021/09/12 09:47:42;;;;;;;17.00;13.87;;;19.60;99.90;;;;;;5085144;28;20473;-82
2021/09/12 09:50:12;;;;;;;16.97;14.57;;;19.60;99.90;;;;;;5084410;28;20445;-82
2021/09/12 09:52:40;;;;;;;18.30;14.23;;;19.50;99.90;;;;;;5083523;28;20477;-85
2021/09/12 09:55:07;;;;;;;20.00;14.60;;;19.50;99.90;;;;;;5083913;28;20477;-82
2021/09/12 09:57:36;;;;;;;18.10;15.87;;;19.90;99.90;;;;;;5086256;28;20833;-82
2021/09/12 10:00:05;;;;;;;17.40;15.50;;;19.80;99.90;;;;;;5082366;28;20829;-83
2021/09/12 10:02:34;;;;;;;16.60;14.83;;;19.80;99.90;;;;;;5097434;28;20433;-80
2021/09/12 10:05:02;;;;;;;17.33;15.63;;;19.80;99.90;;;;;;5095801;28;20996;-82
2021/09/12 10:07:29;;;;;;;20.63;14.77;;;19.80;99.90;;;;;;5084906;28;20535;-82
2021/09/12 10:09:56;;;;;;;16.27;14.20;;;19.90;99.90;;;;;;5082484;28;20449;-82
2021/09/12 10:12:23;;;;;;;17.50;14.97;;;19.90;99.90;;;;;;5081682;28;20976;-82
2021/09/12 10:14:54;;;;;;;17.50;15.20;;;19.80;99.90;;;;;;5084006;28;20434;-82
2021/09/12 10:17:22;;;;;;;14.97;13.30;;;19.90;99.90;;;;;;5084253;28;20465;-82
2021/09/12 10:19:49;;;;;;;14.93;13.37;;;19.80;99.90;;;;;;5084733;28;20446;-82
2021/09/12 10:22:18;;;;;;;14.03;12.60;;;19.90;99.90;;;;;;5086667;28;20445;-82
2021/09/12 10:25:11;;;;;;;13.73;11.50;;;19.90;99.90;;;;;;5084076;28;20442;-82
2021/09/12 10:27:39;;;;;;;14.50;13.00;;;20.00;99.90;;;;;;5084122;28;20492;-82
2021/09/12 10:30:26;;;;;;;15.33;13.73;;;20.10;99.90;;;;;;5083463;28;20445;-82
2021/09/12 10:32:54;;;;;;;15.57;13.60;;;20.10;99.90;;;;;;5086864;28;20433;-82
2021/09/12 10:35:24;;;;;;;15.03;12.70;;;20.20;99.90;;;;;;5084650;28;20445;-82
2021/09/12 10:37:56;;;;;;;12.27;11.07;;;20.20;99.90;;;;;;5091096;28;20446;-82
2021/09/12 10:40:23;;;;;;;13.70;12.13;;;20.30;99.90;;;;;;5098322;28;20476;-82
2021/09/12 10:42:50;;;;;;;13.83;12.43;;;20.30;99.90;;;;;;5094883;28;20452;-81
2021/09/12 10:45:27;;;;;;;12.87;11.57;;;20.30;99.90;;;;;;5097983;28;20456;-81
2021/09/12 10:48:19;;;;;;;11.93;10.70;;;20.30;99.90;;;;;;5085090;28;20457;-82
2021/09/12 10:50:46;;;;;;;12.83;11.63;;;20.30;99.90;;;;;;5084364;28;20448;-82
2021/09/12 10:53:13;;;;;;;12.23;11.00;;;20.30;99.90;;;;;;5082036;28;20441;-83
2021/09/12 10:56:00;;;;;;;16.20;13.00;;;20.30;99.90;;;;;;5081337;28;20449;-82
2021/09/12 10:58:27;;;;;;;10.83;9.70;;;20.30;99.90;;;;;;5082225;28;20461;-83
2021/09/12 11:00:55;;;;;;;10.43;9.43;;;20.50;99.90;;;;;;5081847;28;20504;-83
2021/09/12 11:03:22;;;;;;;12.40;10.70;;;20.60;99.90;;;;;;5080648;28;20484;-83
2021/09/12 11:05:48;;;;;;;13.70;10.07;;;20.60;99.90;;;;;;5081253;28;20469;-83
2021/09/12 11:08:15;;;;;;;10.93;9.93;;;20.70;99.90;;;;;;5083274;28;20457;-83
2021/09/12 11:10:46;;;;;;;11.73;10.20;;;20.70;99.90;;;;;;5081477;28;20445;-83
2021/09/12 11:13:13;;;;;;;11.27;9.73;;;20.60;99.90;;;;;;5079897;28;20440;-83
2021/09/12 11:15:39;;;;;;;11.90;9.00;;;20.70;99.90;;;;;;5080185;28;20864;-83
2021/09/12 11:18:07;;;;;;;12.50;10.07;;;20.70;99.90;;;;;;5081219;28;20515;-83
2021/09/12 11:20:41;;;;;;;11.70;9.80;;;20.80;99.90;;;;;;5087220;28;20489;-83
2021/09/12 11:23:08;;;;;;;10.57;9.57;;;20.80;99.90;;;;;;5091110;28;20474;-83
2021/09/12 11:25:35;;;;;;;10.53;9.50;;;20.90;99.90;;;;;;5095730;28;20445;-83
2021/09/12 11:34:29;;;;;;;9.90;8.90;;;21.10;99.90;;;;;;5089323;28;20479;-84
2021/09/12 11:37:07;;;;;;;10.67;9.60;;;21.10;99.90;;;;;;5091589;28;20465;-84
2021/09/12 11:39:47;;;;;;;12.17;10.50;;;21.10;99.90;;;;;;5066615;28;20478;-84
2021/09/12 11:45:37;;;;;;;11.87;10.67;;;21.10;99.90;;;;;;5056940;28;20529;-84
2021/09/12 11:48:27;;;;;;;9.13;8.30;;;21.60;99.90;;;;;;5062135;28;20473;-85
2021/09/12 11:51:34;;;;;;;10.10;9.20;;;21.10;99.90;;;;;;5070201;28;20433;-83
2021/09/12 11:54:35;;;;;;;8.83;8.13;;;22.80;99.90;;;;;;5058158;28;20443;-83
2021/09/12 12:00:02;;;;;;;10.27;8.83;;;21.10;99.90;;;;;;5067695;28;20473;-84
2021/09/12 12:02:37;;;;;;;10.73;9.50;;;21.00;99.90;;;;;;5065365;28;20500;-84
2021/09/12 12:05:05;;;;;;;11.30;10.00;;;21.30;99.90;;;;;;5065383;28;20438;-84
2021/09/12 12:13:55;;;;;;;;;;;;;;;;;;;;;
2021/09/12 12:17:11;;;;;;;9.17;8.20;;;21.10;99.90;;;;;;5069519;28;20478;-82
2021/09/12 12:23:31;;;;;;;8.87;7.97;;;21.20;99.90;;;;;;5074525;28;20500;-83
2021/09/12 12:29:14;;;;;;;7.77;7.17;;;21.20;99.90;;;;;;5059752;28;20477;-83
2021/09/12 12:32:40;;;;;;;7.00;6.37;;;21.60;99.90;;;;;;5052600;28;20469;-84
2021/09/12 12:35:32;;;;;;;7.67;7.00;;;21.00;99.90;;;;;;5056713;28;20465;-84
2021/09/12 12:38:41;;;;;;;10.23;8.00;;;21.30;99.90;;;;;;5067809;28;20532;-83
2021/09/12 12:41:29;;;;;;;8.27;7.57;;;21.10;99.90;;;;;;5069708;28;20465;-84
2021/09/12 12:44:57;;;;;;;8.10;7.30;;;20.40;99.90;;;;;;5066707;28;20511;-84
2021/09/12 12:51:05;;;;;;;9.40;8.50;;;21.10;99.90;;;;;;5051144;28;20441;-85
2021/09/12 12:53:51;;;;;;;9.93;8.00;;;21.10;99.90;;;;;;5063658;28;20446;-85
2021/09/12 12:56:37;;;;;;;9.47;8.63;;;21.00;99.90;;;;;;5064626;28;20465;-85
2021/09/12 13:05:26;;;;;;;9.87;8.87;;;21.30;99.90;;;;;;4982536;28;20475;-85
2021/09/12 13:08:31;;;;;;;10.13;9.20;;;21.40;99.90;;;;;;5055549;28;20972;-85
2021/09/12 13:13:59;;;;;;;15.17;13.30;;;;;;;;;;5061579;28;20470;-85
2021/09/12 13:16:39;;;;;;;12.47;11.20;;;21.20;99.90;;;;;;5068784;28;20430;-85
2021/09/12 13:29:21;;;;;;;14.40;12.90;;;21.30;99.90;;;;;;5057064;28;20992;-85
2021/09/12 13:32:08;;;;;;;18.67;16.60;;;21.30;99.90;;;;;;5068897;28;20503;-85